Terminal Aerodrome Forecast
Issued by NWS Charleston, WV

Current Version | Previous Version | Text Only | Print | Product List | Glossary Off
Versions: 1 2 3 4 5 6 7 8 9 10 11 12 13 14 15 16 17 18 19 20 21 22 23 24

000
FTUS41 KRLX 031120
TAFCRW
TAF
KCRW 031120Z 0312/0412 VRB03KT P6SM FEW150
     FM031400 22007KT P6SM FEW060
     FM031900 22009G17KT P6SM SCT050
     FM032200 22008G17KT P6SM VCTS SCT050CB
     FM040400 21005KT P6SM VCTS BKN030CB
     FM040800 22004KT P6SM BKN020
     FM041100 26004KT P6SM SCT020=

USA.gov is the U.S. government's official web portal to all federal, state and local government web resources and services.